createdAt,value
2023-05-16T00:01:01.322Z,21.45
2023-05-16T00:03:28.061Z,20.58
2023-05-16T00:05:55.949Z,20.55
2023-05-16T00:08:22.846Z,20.92
2023-05-16T00:10:49.453Z,21.92
2023-05-16T00:13:16.203Z,19.67
2023-05-16T00:15:43.920Z,20.80
2023-05-16T00:18:14.725Z,19.13
2023-05-16T00:20:41.737Z,20.83
2023-05-16T00:23:08.352Z,19.88
2023-05-16T00:25:34.974Z,20.58
2023-05-16T00:28:01.593Z,20.05
2023-05-16T00:30:28.412Z,19.35
2023-05-16T00:32:55.852Z,19.20
2023-05-16T00:35:22.516Z,19.75
2023-05-16T00:37:49.744Z,19.98
2023-05-16T00:40:16.718Z,20.42
2023-05-16T00:42:43.378Z,20.65
2023-05-16T00:45:10.404Z,20.13
2023-05-16T00:47:37.143Z,20.90
2023-05-16T00:50:04.136Z,23.00
2023-05-16T00:52:32.982Z,21.33
2023-05-16T00:54:59.616Z,21.38
2023-05-16T00:57:26.231Z,21.42
2023-05-16T00:59:52.840Z,21.75
2023-05-16T01:02:20.039Z,21.30
2023-05-16T01:04:48.294Z,22.15
2023-05-16T01:07:14.924Z,21.33
2023-05-16T01:09:41.754Z,22.33
2023-05-16T01:12:42.414Z,20.58
2023-05-16T01:15:13.543Z,20.75
2023-05-16T01:18:17.622Z,19.95
2023-05-16T01:20:52.126Z,20.60
2023-05-16T01:23:33.380Z,21.60
2023-05-16T01:26:22.768Z,21.80
2023-05-16T01:28:50.710Z,20.65
2023-05-16T01:31:17.485Z,20.58
2023-05-16T01:33:44.207Z,20.27
2023-05-16T01:37:02.965Z,20.33
2023-05-16T01:39:42.307Z,20.30
2023-05-16T01:42:10.950Z,20.15
2023-05-16T01:44:46.059Z,19.83
2023-05-16T01:47:13.829Z,21.13
2023-05-16T01:50:05.893Z,21.35
2023-05-16T01:52:40.892Z,20.52
2023-05-16T01:55:16.506Z,19.73
2023-05-16T01:57:43.444Z,20.67
2023-05-16T02:00:10.576Z,19.65
2023-05-16T02:02:37.268Z,20.63
2023-05-16T02:05:03.950Z,21.35
2023-05-16T02:07:30.594Z,21.45
2023-05-16T02:09:57.187Z,20.75
2023-05-16T02:12:24.892Z,20.35
2023-05-16T02:14:51.508Z,20.73
2023-05-16T02:17:18.131Z,20.60
2023-05-16T02:19:44.760Z,19.98
2023-05-16T02:22:11.881Z,21.77
2023-05-16T02:24:38.466Z,20.63
2023-05-16T02:27:05.352Z,20.77
2023-05-16T02:29:32.025Z,21.20
2023-05-16T02:31:58.626Z,20.45
2023-05-16T02:34:25.240Z,20.52
2023-05-16T02:36:51.868Z,21.65
2023-05-16T02:39:18.710Z,20.50
2023-05-16T02:41:45.313Z,19.67
2023-05-16T02:44:11.939Z,21.10
2023-05-16T02:46:38.590Z,19.55
2023-05-16T02:49:05.703Z,19.45
2023-05-16T02:51:32.328Z,19.13
2023-05-16T02:54:01.010Z,18.95
2023-05-16T02:56:28.044Z,19.52
2023-05-16T02:58:54.925Z,19.98
2023-05-16T03:01:21.727Z,20.50
2023-05-16T03:03:48.462Z,19.70
2023-05-16T03:06:15.368Z,20.25
2023-05-16T03:08:41.977Z,20.35
2023-05-16T03:11:08.566Z,21.05
2023-05-16T03:13:35.173Z,20.13
2023-05-16T03:16:02.110Z,23.20
2023-05-16T03:18:28.915Z,21.38
2023-05-16T03:20:56.163Z,22.70
2023-05-16T03:23:22.786Z,22.88
2023-05-16T03:25:49.406Z,22.17
2023-05-16T03:28:16.746Z,21.10
2023-05-16T03:30:43.406Z,20.55
2023-05-16T03:33:10.102Z,21.48
2023-05-16T03:35:36.916Z,19.35
2023-05-16T03:38:03.622Z,19.27
2023-05-16T03:40:30.329Z,18.25
2023-05-16T03:42:56.987Z,17.98
2023-05-16T03:45:23.607Z,17.55
2023-05-16T03:47:50.867Z,17.10
2023-05-16T03:50:17.785Z,17.48
2023-05-16T03:52:44.474Z,15.38
2023-05-16T03:55:11.411Z,16.08
2023-05-16T03:57:42.089Z,16.02
2023-05-16T04:00:12.309Z,15.10
2023-05-16T04:02:40.975Z,15.45
2023-05-16T04:05:08.887Z,15.57
2023-05-16T04:07:35.899Z,14.20
2023-05-16T04:10:02.855Z,14.07
2023-05-16T04:12:29.445Z,14.20
2023-05-16T04:14:56.104Z,14.55
2023-05-16T04:17:22.894Z,13.75
2023-05-16T04:19:49.551Z,13.52
2023-05-16T04:22:16.707Z,14.07
2023-05-16T04:24:43.378Z,13.55
2023-05-16T04:27:09.996Z,13.25
2023-05-16T04:29:36.656Z,13.85
2023-05-16T04:32:03.726Z,11.85
2023-05-16T04:34:30.773Z,12.90
2023-05-16T04:36:57.882Z,11.85
2023-05-16T04:39:24.481Z,11.55
2023-05-16T04:41:51.570Z,10.43
2023-05-16T04:44:18.200Z,10.15
2023-05-16T04:46:44.885Z,11.02
2023-05-16T04:49:11.531Z,9.45
2023-05-16T04:51:38.166Z,9.32
2023-05-16T04:54:04.851Z,9.88
2023-05-16T04:56:31.929Z,9.30
2023-05-16T04:58:58.548Z,10.48
2023-05-16T05:01:25.239Z,9.38
2023-05-16T05:03:52.212Z,10.25
2023-05-16T05:06:18.972Z,9.20
2023-05-16T05:08:45.584Z,9.45
2023-05-16T05:11:12.201Z,8.20
2023-05-16T05:13:38.852Z,7.60
2023-05-16T05:16:06.025Z,7.80
2023-05-16T05:18:32.884Z,7.20
2023-05-16T05:20:59.913Z,7.07
2023-05-16T05:23:26.571Z,7.53
2023-05-16T05:25:53.183Z,6.35
2023-05-16T05:28:19.806Z,6.68
2023-05-16T05:30:48.300Z,6.35
2023-05-16T05:33:16.526Z,6.55
2023-05-16T05:35:43.138Z,5.80
2023-05-16T05:38:09.768Z,5.10
2023-05-16T05:40:36.353Z,4.90
2023-05-16T05:43:02.992Z,3.90
2023-05-16T05:45:29.824Z,3.90
2023-05-16T05:47:56.886Z,4.18
2023-05-16T05:50:23.799Z,4.38
2023-05-16T05:52:50.457Z,3.45
2023-05-16T05:55:17.114Z,3.42
2023-05-16T05:57:43.736Z,3.72
2023-05-16T06:00:11.502Z,3.65
2023-05-16T06:02:38.308Z,3.28
2023-05-16T06:05:05.349Z,3.53
2023-05-16T06:07:31.987Z,2.50
2023-05-16T06:09:58.640Z,2.92
2023-05-16T06:12:25.431Z,2.38
2023-05-16T06:14:52.051Z,2.33
2023-05-16T06:17:18.810Z,3.17
2023-05-16T06:19:45.457Z,2.10
2023-05-16T06:22:12.170Z,2.60
2023-05-16T06:24:38.782Z,2.33
2023-05-16T06:27:05.564Z,2.05
2023-05-16T06:29:32.212Z,2.95
2023-05-16T06:31:58.950Z,2.47
2023-05-16T06:34:28.220Z,2.97
2023-05-16T06:36:55.131Z,2.95
2023-05-16T06:39:21.754Z,2.20
2023-05-16T06:41:48.584Z,2.97
2023-05-16T06:44:15.645Z,2.70
2023-05-16T06:46:42.325Z,2.58
2023-05-16T06:49:08.998Z,3.42
2023-05-16T06:51:35.640Z,3.10
2023-05-16T06:54:04.143Z,3.85
2023-05-16T06:56:31.560Z,2.80
2023-05-16T06:58:58.331Z,2.75
2023-05-16T07:01:25.565Z,3.33
2023-05-16T07:03:52.469Z,3.35
2023-05-16T07:06:19.200Z,3.47
2023-05-16T07:08:46.124Z,3.75
2023-05-16T07:11:12.923Z,3.47
2023-05-16T07:13:39.558Z,3.45
2023-05-16T07:16:07.751Z,3.00
2023-05-16T07:18:34.447Z,3.03
2023-05-16T07:21:01.233Z,2.80
2023-05-16T07:23:27.855Z,2.88
2023-05-16T07:25:54.528Z,2.83
2023-05-16T07:28:22.122Z,3.10
2023-05-16T07:30:48.786Z,3.42
2023-05-16T07:33:15.455Z,3.35
2023-05-16T07:35:42.288Z,2.40
2023-05-16T07:38:09.121Z,2.60
2023-05-16T07:40:35.775Z,2.45
2023-05-16T07:43:02.979Z,3.13
2023-05-16T07:45:29.998Z,2.83
2023-05-16T07:47:57.045Z,2.90
2023-05-16T07:50:23.950Z,3.08
2023-05-16T07:52:50.703Z,2.50
2023-05-16T07:55:17.368Z,4.25
2023-05-16T07:57:44.018Z,2.70
2023-05-16T08:00:11.221Z,3.30
2023-05-16T08:02:38.008Z,2.90
2023-05-16T08:05:05.892Z,2.10
2023-05-16T08:07:32.763Z,3.20
2023-05-16T08:09:59.523Z,2.30
2023-05-16T08:12:27.290Z,2.80
2023-05-16T08:14:53.939Z,2.83
2023-05-16T08:17:20.748Z,3.88
2023-05-16T08:19:47.401Z,2.28
2023-05-16T08:22:14.062Z,2.33
2023-05-16T08:24:41.202Z,2.60
2023-05-16T08:27:08.756Z,2.10
2023-05-16T08:29:35.626Z,2.38
2023-05-16T08:32:02.346Z,2.30
2023-05-16T08:34:31.857Z,2.20
2023-05-16T08:36:58.524Z,2.33
2023-05-16T08:39:28.794Z,2.20
2023-05-16T08:41:55.533Z,2.90
2023-05-16T08:44:22.299Z,2.33
2023-05-16T08:46:51.688Z,2.15
2023-05-16T08:49:18.708Z,2.30
2023-05-16T08:51:46.966Z,2.05
2023-05-16T08:54:14.513Z,2.00
2023-05-16T08:56:44.845Z,1.92
2023-05-16T08:59:12.315Z,2.58
2023-05-16T09:01:39.041Z,1.85
2023-05-16T09:04:07.250Z,1.58
2023-05-16T09:06:34.012Z,2.47
2023-05-16T09:09:00.720Z,2.58
2023-05-16T09:11:27.351Z,2.25
2023-05-16T09:13:54.319Z,2.17
2023-05-16T09:16:21.461Z,1.90
2023-05-16T09:18:58.223Z,1.92
2023-05-16T09:21:27.892Z,2.33
2023-05-16T09:23:54.963Z,2.38
2023-05-16T09:26:22.677Z,1.92
2023-05-16T09:28:49.336Z,1.73
2023-05-16T09:31:23.710Z,2.25
2023-05-16T09:33:50.693Z,2.28
2023-05-16T09:36:17.460Z,2.45
2023-05-16T09:38:44.430Z,2.08
2023-05-16T09:41:11.188Z,1.60
2023-05-16T09:43:41.971Z,1.63
2023-05-16T09:46:08.960Z,1.67
2023-05-16T09:48:36.293Z,2.25
2023-05-16T09:51:05.693Z,1.85
2023-05-16T09:53:33.199Z,2.60
2023-05-16T09:56:04.004Z,1.67
2023-05-16T09:58:35.293Z,2.28
2023-05-16T10:01:02.371Z,1.73
2023-05-16T10:03:29.248Z,2.42
2023-05-16T10:05:56.087Z,2.25
2023-05-16T10:08:24.109Z,1.52
2023-05-16T10:10:52.486Z,1.92
2023-05-16T10:13:23.159Z,1.85
2023-05-16T10:15:50.527Z,2.08
2023-05-16T10:18:18.376Z,1.83
2023-05-16T10:20:46.303Z,1.60
2023-05-16T10:23:16.814Z,2.42
2023-05-16T10:25:44.716Z,2.10
2023-05-16T10:28:11.463Z,1.70
2023-05-16T10:30:39.979Z,1.67
2023-05-16T10:33:06.960Z,2.40
2023-05-16T10:35:34.849Z,1.73
2023-05-16T10:38:01.492Z,2.03
2023-05-16T10:40:28.807Z,1.83
2023-05-16T10:42:59.474Z,1.60
2023-05-16T10:45:26.441Z,2.50
2023-05-16T10:48:00.893Z,1.50
2023-05-16T10:53:37.543Z,1.83
2023-05-16T10:56:04.134Z,1.67
2023-05-16T10:58:36.472Z,1.48
2023-05-16T11:01:35.414Z,1.50
2023-05-16T11:04:06.459Z,1.80
2023-05-16T11:06:43.597Z,1.88
2023-05-16T11:09:13.735Z,2.50
2023-05-16T11:11:48.667Z,1.42
2023-05-16T11:14:32.634Z,2.42
2023-05-16T11:17:02.674Z,1.55
2023-05-16T11:19:33.750Z,1.63
2023-05-16T11:22:18.862Z,2.67
2023-05-16T11:25:03.197Z,2.15
2023-05-16T11:27:33.320Z,1.33
2023-05-16T11:30:03.651Z,1.70
2023-05-16T11:32:30.718Z,1.08
2023-05-16T11:34:57.378Z,1.70
2023-05-16T11:37:24.053Z,1.83
2023-05-16T11:39:50.849Z,1.83
2023-05-16T11:42:18.096Z,1.48
2023-05-16T11:44:45.282Z,1.25
2023-05-16T11:47:12.723Z,1.35
2023-05-16T11:49:39.514Z,1.75
2023-05-16T11:52:06.373Z,1.65
2023-05-16T11:54:34.597Z,1.30
2023-05-16T11:57:02.046Z,1.30
2023-05-16T11:59:28.764Z,1.63
2023-05-16T12:01:55.490Z,1.35
2023-05-16T12:04:23.066Z,1.35
2023-05-16T12:06:58.672Z,1.38
2023-05-16T12:09:25.438Z,1.45
2023-05-16T12:11:52.077Z,1.30
2023-05-16T12:14:18.741Z,1.75
2023-05-16T12:16:46.509Z,1.35
2023-05-16T12:19:14.041Z,1.15
2023-05-16T12:21:40.913Z,1.52
2023-05-16T12:24:11.464Z,1.52
2023-05-16T12:26:39.808Z,2.22
2023-05-16T12:29:06.813Z,1.67
2023-05-16T12:31:36.686Z,1.85
2023-05-16T12:34:03.429Z,1.20
2023-05-16T12:36:34.744Z,1.30
2023-05-16T12:39:03.889Z,1.17
2023-05-16T12:41:31.149Z,1.40
2023-05-16T12:44:11.974Z,0.90
2023-05-16T12:46:45.845Z,1.48
2023-05-16T12:49:13.561Z,1.48
2023-05-16T12:51:40.990Z,1.15
2023-05-16T12:54:10.354Z,1.30
2023-05-16T12:56:38.355Z,1.10
2023-05-16T12:59:05.159Z,1.77
2023-05-16T13:01:34.561Z,1.20
2023-05-16T13:04:01.471Z,1.30
2023-05-16T13:06:28.899Z,3.10
2023-05-16T13:08:57.684Z,1.50
2023-05-16T13:11:25.048Z,1.45
2023-05-16T13:13:52.339Z,1.33
2023-05-16T13:16:19.163Z,1.35
2023-05-16T13:18:46.026Z,1.40
2023-05-16T13:21:12.744Z,1.25
2023-05-16T13:23:39.400Z,1.20
2023-05-16T13:26:06.051Z,1.10
2023-05-16T13:28:32.947Z,1.20
2023-05-16T13:31:00.747Z,1.13
2023-05-16T13:33:27.623Z,1.33
2023-05-16T13:35:55.304Z,1.48
2023-05-16T13:38:22.166Z,1.35
2023-05-16T13:40:48.816Z,1.38
2023-05-16T13:43:15.730Z,1.48
2023-05-16T13:45:44.055Z,1.90
2023-05-16T13:48:11.480Z,1.30
2023-05-16T13:50:44.049Z,1.38
2023-05-16T13:53:11.370Z,1.33
2023-05-16T13:55:38.042Z,1.13
2023-05-16T13:58:04.747Z,1.30
2023-05-16T14:00:43.509Z,1.52
2023-05-16T14:03:12.279Z,1.13
2023-05-16T14:05:39.268Z,1.40
2023-05-16T14:08:06.661Z,2.22
2023-05-16T14:10:33.581Z,1.35
2023-05-16T14:13:00.386Z,1.92
2023-05-16T14:15:27.410Z,1.38
2023-05-16T14:17:54.405Z,1.20
2023-05-16T14:20:21.620Z,1.42
2023-05-16T14:22:48.308Z,1.17
2023-05-16T14:25:14.966Z,0.95
2023-05-16T14:27:41.614Z,1.75
2023-05-16T14:30:09.511Z,1.33
2023-05-16T14:32:36.328Z,0.93
2023-05-16T14:35:05.483Z,1.30
2023-05-16T14:37:32.416Z,0.98
2023-05-16T14:40:00.966Z,0.90
2023-05-16T14:42:27.759Z,1.30
2023-05-16T14:44:54.424Z,1.50
2023-05-16T14:47:21.432Z,1.13
2023-05-16T14:49:49.079Z,1.25
2023-05-16T14:52:15.824Z,1.63
2023-05-16T14:54:42.465Z,1.00
2023-05-16T14:57:09.132Z,1.30
2023-05-16T14:59:35.837Z,1.13
2023-05-16T15:02:02.840Z,1.02
2023-05-16T15:04:29.651Z,1.30
2023-05-16T15:06:56.402Z,0.88
2023-05-16T15:09:23.051Z,1.42
2023-05-16T15:11:49.741Z,1.45
2023-05-16T15:14:16.414Z,1.20
2023-05-16T15:16:43.419Z,1.35
2023-05-16T15:19:10.258Z,1.40
2023-05-16T15:21:37.019Z,1.35
2023-05-16T15:24:03.761Z,1.70
2023-05-16T15:26:31.011Z,1.85
2023-05-16T15:28:57.766Z,1.45
2023-05-16T15:31:24.489Z,1.40
2023-05-16T15:33:51.360Z,1.40
2023-05-16T15:36:18.075Z,1.27
2023-05-16T15:38:45.655Z,1.73
2023-05-16T15:41:31.523Z,1.38
2023-05-16T15:44:00.442Z,1.33
2023-05-16T15:46:27.371Z,1.42
2023-05-16T15:48:54.084Z,1.23
2023-05-16T15:51:21.083Z,1.30
2023-05-16T15:53:47.927Z,1.50
2023-05-16T15:56:14.596Z,1.73
2023-05-16T15:58:41.264Z,1.50
2023-05-16T16:01:08.006Z,1.65
2023-05-16T16:03:34.769Z,1.40
2023-05-16T16:06:01.546Z,1.60
2023-05-16T16:08:28.218Z,1.75
2023-05-16T16:10:54.861Z,1.30
2023-05-16T16:13:21.518Z,1.35
2023-05-16T16:15:48.195Z,1.67
2023-05-16T16:18:14.882Z,1.23
2023-05-16T16:20:41.848Z,1.50
2023-05-16T16:23:08.501Z,1.40
2023-05-16T16:25:35.164Z,1.38
2023-05-16T16:28:01.815Z,1.40
2023-05-16T16:30:28.459Z,1.48
2023-05-16T16:32:55.326Z,1.23
2023-05-16T16:35:24.420Z,1.80
2023-05-16T16:38:05.710Z,1.45
2023-05-16T16:40:33.580Z,1.10
2023-05-16T16:43:00.299Z,1.52
2023-05-16T16:45:27.175Z,1.42
2023-05-16T16:47:54.102Z,1.20
2023-05-16T16:50:20.892Z,2.33
2023-05-16T16:52:47.763Z,2.22
2023-05-16T16:55:15.021Z,1.20
2023-05-16T16:57:42.406Z,1.30
2023-05-16T17:00:11.381Z,1.40
2023-05-16T17:02:38.299Z,1.30
2023-05-16T17:05:09.316Z,1.50
2023-05-16T17:07:36.012Z,1.63
2023-05-16T17:10:04.816Z,1.30
2023-05-16T17:12:34.662Z,1.50
2023-05-16T17:15:02.059Z,1.25
2023-05-16T17:17:28.844Z,1.70
2023-05-16T17:19:55.963Z,1.30
2023-05-16T17:22:22.676Z,1.60
2023-05-16T17:24:49.356Z,1.35
2023-05-16T17:27:16.228Z,1.92
2023-05-16T17:29:42.893Z,1.27
2023-05-16T17:32:09.551Z,1.38
2023-05-16T17:34:36.446Z,1.30
2023-05-16T17:37:05.524Z,1.15
2023-05-16T17:39:33.721Z,1.40
2023-05-16T17:42:00.570Z,1.40
2023-05-16T17:44:27.225Z,1.20
2023-05-16T17:46:54.027Z,1.20
2023-05-16T17:49:21.653Z,1.17
2023-05-16T17:51:49.769Z,1.55
2023-05-16T17:54:18.655Z,1.30
2023-05-16T17:56:46.662Z,1.60
2023-05-16T17:59:13.743Z,1.40
2023-05-16T18:01:40.609Z,1.33
2023-05-16T18:04:07.863Z,1.30
2023-05-16T18:06:36.106Z,1.40
2023-05-16T18:09:06.507Z,2.08
2023-05-16T18:11:37.706Z,1.30
2023-05-16T18:14:04.385Z,1.33
2023-05-16T18:16:31.120Z,1.52
2023-05-16T18:18:58.206Z,1.40
2023-05-16T18:21:25.083Z,1.40
2023-05-16T18:23:51.786Z,1.23
2023-05-16T18:26:19.319Z,1.65
2023-05-16T18:28:46.202Z,1.23
2023-05-16T18:31:12.874Z,1.50
2023-05-16T18:33:39.531Z,1.90
2023-05-16T18:36:06.452Z,1.00
2023-05-16T18:38:33.896Z,1.60
2023-05-16T18:41:00.991Z,1.73
2023-05-16T18:43:27.644Z,1.88
2023-05-16T18:45:54.286Z,1.75
2023-05-16T18:48:21.128Z,1.58
2023-05-16T18:50:47.814Z,2.72
2023-05-16T18:53:14.455Z,2.10
2023-05-16T18:55:41.126Z,2.45
2023-05-16T18:58:07.761Z,2.45
2023-05-16T19:00:34.424Z,2.03
2023-05-16T19:03:01.341Z,1.42
2023-05-16T19:05:28.555Z,1.27
2023-05-16T19:07:55.523Z,1.85
2023-05-16T19:10:22.333Z,1.70
2023-05-16T19:12:49.240Z,1.73
2023-05-16T19:15:16.050Z,2.50
2023-05-16T19:17:43.003Z,2.72
2023-05-16T19:20:10.940Z,2.80
2023-05-16T19:22:37.753Z,3.05
2023-05-16T19:25:05.483Z,2.40
2023-05-16T19:27:32.265Z,2.67
2023-05-16T19:29:58.907Z,5.43
2023-05-16T19:32:25.730Z,3.28
2023-05-16T19:34:52.733Z,2.40
2023-05-16T19:37:19.441Z,1.67
2023-05-16T19:39:46.124Z,2.20
2023-05-16T19:42:12.816Z,2.13
2023-05-16T19:44:39.469Z,1.48
2023-05-16T19:47:06.251Z,1.52
2023-05-16T19:49:32.928Z,1.77
2023-05-16T19:51:59.612Z,1.95
2023-05-16T19:54:26.263Z,1.70
2023-05-16T19:56:52.981Z,1.55
2023-05-16T19:59:20.487Z,2.08
2023-05-16T20:01:47.129Z,2.13
2023-05-16T20:04:13.899Z,1.60
2023-05-16T20:06:41.150Z,1.70
2023-05-16T20:09:07.844Z,1.85
2023-05-16T20:11:34.574Z,1.88
2023-05-16T20:14:01.225Z,1.73
2023-05-16T20:16:27.900Z,2.22
2023-05-16T20:18:54.661Z,1.67
2023-05-16T20:21:21.386Z,1.75
2023-05-16T20:23:48.055Z,1.83
2023-05-16T20:26:15.174Z,2.35
2023-05-16T20:28:42.026Z,2.03
2023-05-16T20:31:08.745Z,2.10
2023-05-16T20:33:35.597Z,2.20
2023-05-16T20:36:02.305Z,2.35
2023-05-16T20:38:28.960Z,1.70
2023-05-16T20:40:56.213Z,1.77
2023-05-16T20:43:24.157Z,2.35
2023-05-16T20:45:52.614Z,2.33
2023-05-16T20:48:19.400Z,2.13
2023-05-16T20:50:46.180Z,2.17
2023-05-16T20:53:12.870Z,2.42
2023-05-16T20:55:39.520Z,2.20
2023-05-16T20:58:06.211Z,2.45
2023-05-16T21:00:33.678Z,2.92
2023-05-16T21:03:00.452Z,2.13
2023-05-16T21:05:27.213Z,3.15
2023-05-16T21:07:53.894Z,2.25
2023-05-16T21:10:20.601Z,2.47
2023-05-16T21:12:47.313Z,2.42
2023-05-16T21:15:13.986Z,2.50
2023-05-16T21:17:41.460Z,2.50
2023-05-16T21:20:08.647Z,2.58
2023-05-16T21:22:35.810Z,2.58
2023-05-16T21:25:02.464Z,2.38
2023-05-16T21:27:29.100Z,2.60
2023-05-16T21:29:55.736Z,2.53
2023-05-16T21:32:22.412Z,2.60
2023-05-16T21:34:49.108Z,3.00
2023-05-16T21:37:16.807Z,2.97
2023-05-16T21:39:43.507Z,2.85
2023-05-16T21:42:10.149Z,3.00
2023-05-16T21:44:36.841Z,3.92
2023-05-16T21:47:03.772Z,2.95
2023-05-16T21:49:30.496Z,3.50
2023-05-16T21:51:57.167Z,3.30
2023-05-16T21:54:23.832Z,2.97
2023-05-16T21:56:50.496Z,3.03
2023-05-16T21:59:17.174Z,3.42
2023-05-16T22:01:43.840Z,3.15
2023-05-16T22:04:10.783Z,3.53
2023-05-16T22:06:37.590Z,3.05
2023-05-16T22:09:04.302Z,3.00
2023-05-16T22:11:30.998Z,3.58
2023-05-16T22:13:57.686Z,3.67
2023-05-16T22:16:24.360Z,5.70
2023-05-16T22:18:51.181Z,2.70
2023-05-16T22:21:17.968Z,2.83
2023-05-16T22:23:44.604Z,3.10
2023-05-16T22:26:11.338Z,2.85
2023-05-16T22:28:38.029Z,3.28
2023-05-16T22:31:04.676Z,3.45
2023-05-16T22:33:31.345Z,3.22
2023-05-16T22:35:58.038Z,2.88
2023-05-16T22:38:24.782Z,3.58
2023-05-16T22:40:51.687Z,2.97
2023-05-16T22:43:19.475Z,3.10
2023-05-16T22:45:46.161Z,3.30
2023-05-16T22:48:12.904Z,3.42
2023-05-16T22:50:39.576Z,2.97
2023-05-16T22:53:06.275Z,3.53
2023-05-16T22:55:33.883Z,3.10
2023-05-16T22:58:00.756Z,3.42
2023-05-16T23:00:27.481Z,3.15
2023-05-16T23:02:54.243Z,2.90
2023-05-16T23:05:20.975Z,3.20
2023-05-16T23:07:47.918Z,3.78
2023-05-16T23:10:14.558Z,3.10
2023-05-16T23:12:41.215Z,3.72
2023-05-16T23:15:10.153Z,3.55
2023-05-16T23:17:38.135Z,3.58
2023-05-16T23:20:06.782Z,3.20
2023-05-16T23:22:33.474Z,3.15
2023-05-16T23:25:00.158Z,3.45
2023-05-16T23:27:26.848Z,4.05
2023-05-16T23:29:53.573Z,3.70
2023-05-16T23:32:20.350Z,3.30
2023-05-16T23:34:47.038Z,3.47
2023-05-16T23:37:13.694Z,3.00
2023-05-16T23:39:41.029Z,3.22
2023-05-16T23:42:07.710Z,4.13
2023-05-16T23:44:34.418Z,3.22
2023-05-16T23:47:01.311Z,3.65
2023-05-16T23:49:28.043Z,3.40
2023-05-16T23:51:57.578Z,3.38
2023-05-16T23:54:25.730Z,3.55
2023-05-16T23:56:52.464Z,3.58
2023-05-16T23:59:19.279Z,3.78
